sensor_id;sensor_type;location;lat;lon;timestamp;P1;durP1;ratioP1;P2;durP2;ratioP2
18433;SDS011;9344;52.294;13.626;2022-11-15T00:02:01;28.83;;;9.52;;
18433;SDS011;9344;52.294;13.626;2022-11-15T00:04:29;27.48;;;9.18;;
18433;SDS011;9344;52.294;13.626;2022-11-15T00:06:56;26.50;;;9.82;;
18433;SDS011;9344;52.294;13.626;2022-11-15T00:09:22;25.20;;;8.80;;
18433;SDS011;9344;52.294;13.626;2022-11-15T00:11:49;26.73;;;9.90;;
18433;SDS011;9344;52.294;13.626;2022-11-15T00:14:16;28.98;;;10.05;;
18433;SDS011;9344;52.294;13.626;2022-11-15T00:16:45;27.20;;;9.13;;
18433;SDS011;9344;52.294;13.626;2022-11-15T00:19:11;26.85;;;9.43;;
18433;SDS011;9344;52.294;13.626;2022-11-15T00:21:38;26.30;;;9.30;;
18433;SDS011;9344;52.294;13.626;2022-11-15T00:24:05;30.13;;;10.05;;
18433;SDS011;9344;52.294;13.626;2022-11-15T00:26:32;28.55;;;10.05;;
18433;SDS011;9344;52.294;13.626;2022-11-15T00:28:58;28.08;;;10.00;;
18433;SDS011;9344;52.294;13.626;2022-11-15T00:31:25;27.25;;;9.32;;
18433;SDS011;9344;52.294;13.626;2022-11-15T00:33:53;27.63;;;9.90;;
18433;SDS011;9344;52.294;13.626;2022-11-15T00:36:19;29.88;;;9.55;;
18433;SDS011;9344;52.294;13.626;2022-11-15T00:38:46;28.35;;;10.10;;
18433;SDS011;9344;52.294;13.626;2022-11-15T00:41:12;26.08;;;9.65;;
18433;SDS011;9344;52.294;13.626;2022-11-15T00:43:39;30.33;;;10.35;;
18433;SDS011;9344;52.294;13.626;2022-11-15T00:46:08;31.65;;;10.82;;
18433;SDS011;9344;52.294;13.626;2022-11-15T00:48:35;24.00;;;9.13;;
18433;SDS011;9344;52.294;13.626;2022-11-15T00:51:03;30.77;;;10.70;;
18433;SDS011;9344;52.294;13.626;2022-11-15T00:53:29;29.10;;;10.13;;
18433;SDS011;9344;52.294;13.626;2022-11-15T00:55:56;30.58;;;10.70;;
18433;SDS011;9344;52.294;13.626;2022-11-15T00:58:22;29.17;;;9.88;;
18433;SDS011;9344;52.294;13.626;2022-11-15T01:00:49;28.30;;;9.50;;
18433;SDS011;9344;52.294;13.626;2022-11-15T01:03:15;33.00;;;10.43;;
18433;SDS011;9344;52.294;13.626;2022-11-15T01:05:42;29.30;;;10.02;;
18433;SDS011;9344;52.294;13.626;2022-11-15T01:08:12;32.03;;;9.55;;
18433;SDS011;9344;52.294;13.626;2022-11-15T01:10:40;24.90;;;9.48;;
18433;SDS011;9344;52.294;13.626;2022-11-15T01:13:07;31.75;;;9.30;;
18433;SDS011;9344;52.294;13.626;2022-11-15T01:15:33;31.75;;;10.55;;
18433;SDS011;9344;52.294;13.626;2022-11-15T01:18:00;33.28;;;9.60;;
18433;SDS011;9344;52.294;13.626;2022-11-15T01:20:26;27.95;;;10.05;;
18433;SDS011;9344;52.294;13.626;2022-11-15T01:22:53;31.85;;;10.55;;
18433;SDS011;9344;52.294;13.626;2022-11-15T01:25:21;29.95;;;9.95;;
18433;SDS011;9344;52.294;13.626;2022-11-15T01:27:48;27.70;;;9.52;;
18433;SDS011;9344;52.294;13.626;2022-11-15T01:30:14;29.17;;;10.05;;
18433;SDS011;9344;52.294;13.626;2022-11-15T01:32:41;33.55;;;10.45;;
18433;SDS011;9344;52.294;13.626;2022-11-15T01:35:07;27.55;;;9.63;;
18433;SDS011;9344;52.294;13.626;2022-11-15T01:37:34;24.75;;;9.32;;
18433;SDS011;9344;52.294;13.626;2022-11-15T01:40:01;28.35;;;11.25;;
18433;SDS011;9344;52.294;13.626;2022-11-15T01:42:29;29.30;;;8.68;;
18433;SDS011;9344;52.294;13.626;2022-11-15T01:44:56;29.23;;;10.20;;
18433;SDS011;9344;52.294;13.626;2022-11-15T01:47:23;30.48;;;10.07;;
18433;SDS011;9344;52.294;13.626;2022-11-15T01:49:53;30.73;;;10.60;;
18433;SDS011;9344;52.294;13.626;2022-11-15T01:52:23;32.72;;;10.50;;
18433;SDS011;9344;52.294;13.626;2022-11-15T01:54:53;30.77;;;9.35;;
18433;SDS011;9344;52.294;13.626;2022-11-15T01:57:24;26.52;;;9.55;;
18433;SDS011;9344;52.294;13.626;2022-11-15T01:59:51;28.30;;;10.05;;
18433;SDS011;9344;52.294;13.626;2022-11-15T02:02:18;26.40;;;9.40;;
18433;SDS011;9344;52.294;13.626;2022-11-15T02:04:45;34.55;;;10.93;;
18433;SDS011;9344;52.294;13.626;2022-11-15T02:07:14;26.80;;;9.38;;
18433;SDS011;9344;52.294;13.626;2022-11-15T02:09:43;30.52;;;10.45;;
18433;SDS011;9344;52.294;13.626;2022-11-15T02:12:10;28.65;;;10.38;;
18433;SDS011;9344;52.294;13.626;2022-11-15T02:14:40;36.20;;;10.57;;
18433;SDS011;9344;52.294;13.626;2022-11-15T02:17:15;30.45;;;9.88;;
18433;SDS011;9344;52.294;13.626;2022-11-15T02:22:52;28.02;;;9.20;;
18433;SDS011;9344;52.294;13.626;2022-11-15T02:25:46;26.65;;;10.10;;
18433;SDS011;9344;52.294;13.626;2022-11-15T02:31:24;31.50;;;10.35;;
18433;SDS011;9344;52.294;13.626;2022-11-15T02:33:59;36.25;;;11.02;;
18433;SDS011;9344;52.294;13.626;2022-11-15T02:36:34;32.15;;;11.68;;
18433;SDS011;9344;52.294;13.626;2022-11-15T02:39:07;29.80;;;10.63;;
18433;SDS011;9344;52.294;13.626;2022-11-15T02:41:40;31.27;;;11.18;;
18433;SDS011;9344;52.294;13.626;2022-11-15T02:44:12;28.80;;;10.07;;
18433;SDS011;9344;52.294;13.626;2022-11-15T02:46:43;35.80;;;10.75;;
18433;SDS011;9344;52.294;13.626;2022-11-15T02:49:33;28.35;;;9.73;;
18433;SDS011;9344;52.294;13.626;2022-11-15T02:52:00;32.55;;;10.93;;
18433;SDS011;9344;52.294;13.626;2022-11-15T02:54:28;31.23;;;10.02;;
18433;SDS011;9344;52.294;13.626;2022-11-15T02:56:57;30.13;;;10.02;;
18433;SDS011;9344;52.294;13.626;2022-11-15T03:02:44;34.17;;;10.05;;
18433;SDS011;9344;52.294;13.626;2022-11-15T03:05:24;31.67;;;10.38;;
18433;SDS011;9344;52.294;13.626;2022-11-15T03:08:00;29.60;;;10.75;;
18433;SDS011;9344;52.294;13.626;2022-11-15T03:10:32;28.83;;;10.80;;
18433;SDS011;9344;52.294;13.626;2022-11-15T03:13:10;34.22;;;10.07;;
18433;SDS011;9344;52.294;13.626;2022-11-15T03:15:51;33.70;;;10.10;;
18433;SDS011;9344;52.294;13.626;2022-11-15T03:18:31;27.90;;;9.77;;
18433;SDS011;9344;52.294;13.626;2022-11-15T03:20:59;34.45;;;11.18;;
18433;SDS011;9344;52.294;13.626;2022-11-15T03:23:29;32.83;;;10.93;;
18433;SDS011;9344;52.294;13.626;2022-11-15T03:25:57;37.65;;;11.80;;
18433;SDS011;9344;52.294;13.626;2022-11-15T03:28:27;30.35;;;10.88;;
18433;SDS011;9344;52.294;13.626;2022-11-15T03:30:59;28.35;;;9.98;;
18433;SDS011;9344;52.294;13.626;2022-11-15T03:33:50;31.95;;;9.55;;
18433;SDS011;9344;52.294;13.626;2022-11-15T03:36:21;32.35;;;11.48;;
18433;SDS011;9344;52.294;13.626;2022-11-15T03:38:49;38.42;;;11.63;;
18433;SDS011;9344;52.294;13.626;2022-11-15T03:41:20;27.98;;;10.50;;
18433;SDS011;9344;52.294;13.626;2022-11-15T03:43:52;31.90;;;10.23;;
18433;SDS011;9344;52.294;13.626;2022-11-15T03:46:23;35.45;;;11.07;;
18433;SDS011;9344;52.294;13.626;2022-11-15T03:48:54;30.08;;;9.70;;
18433;SDS011;9344;52.294;13.626;2022-11-15T03:51:27;30.88;;;10.57;;
18433;SDS011;9344;52.294;13.626;2022-11-15T03:53:54;31.67;;;10.18;;
18433;SDS011;9344;52.294;13.626;2022-11-15T03:56:21;30.90;;;10.38;;
18433;SDS011;9344;52.294;13.626;2022-11-15T03:58:47;28.52;;;9.48;;
18433;SDS011;9344;52.294;13.626;2022-11-15T04:01:14;35.80;;;11.52;;
18433;SDS011;9344;52.294;13.626;2022-11-15T04:03:40;30.17;;;9.98;;
18433;SDS011;9344;52.294;13.626;2022-11-15T04:06:08;28.73;;;10.18;;
18433;SDS011;9344;52.294;13.626;2022-11-15T04:08:35;30.65;;;10.55;;
18433;SDS011;9344;52.294;13.626;2022-11-15T04:11:01;30.15;;;10.60;;
18433;SDS011;9344;52.294;13.626;2022-11-15T04:13:28;30.63;;;9.55;;
18433;SDS011;9344;52.294;13.626;2022-11-15T04:15:54;31.13;;;11.30;;
18433;SDS011;9344;52.294;13.626;2022-11-15T04:18:21;29.83;;;9.85;;
18433;SDS011;9344;52.294;13.626;2022-11-15T04:20:47;30.55;;;10.00;;
18433;SDS011;9344;52.294;13.626;2022-11-15T04:23:33;30.33;;;9.75;;
18433;SDS011;9344;52.294;13.626;2022-11-15T04:26:17;27.42;;;9.35;;
18433;SDS011;9344;52.294;13.626;2022-11-15T04:28:45;27.00;;;9.60;;
18433;SDS011;9344;52.294;13.626;2022-11-15T04:31:26;27.38;;;9.20;;
18433;SDS011;9344;52.294;13.626;2022-11-15T04:33:53;28.63;;;9.93;;
18433;SDS011;9344;52.294;13.626;2022-11-15T04:36:20;29.98;;;9.82;;
18433;SDS011;9344;52.294;13.626;2022-11-15T04:39:05;36.95;;;9.75;;
18433;SDS011;9344;52.294;13.626;2022-11-15T04:41:32;27.92;;;9.18;;
18433;SDS011;9344;52.294;13.626;2022-11-15T04:43:59;30.60;;;10.02;;
18433;SDS011;9344;52.294;13.626;2022-11-15T04:46:25;32.88;;;11.07;;
18433;SDS011;9344;52.294;13.626;2022-11-15T04:48:52;30.65;;;10.43;;
18433;SDS011;9344;52.294;13.626;2022-11-15T04:51:20;33.23;;;10.57;;
18433;SDS011;9344;52.294;13.626;2022-11-15T04:53:46;31.00;;;11.05;;
18433;SDS011;9344;52.294;13.626;2022-11-15T04:56:14;29.08;;;10.27;;
18433;SDS011;9344;52.294;13.626;2022-11-15T04:58:41;31.85;;;10.35;;
18433;SDS011;9344;52.294;13.626;2022-11-15T05:01:07;35.20;;;10.98;;
18433;SDS011;9344;52.294;13.626;2022-11-15T05:03:34;33.83;;;11.30;;
18433;SDS011;9344;52.294;13.626;2022-11-15T05:06:18;25.00;;;9.32;;
18433;SDS011;9344;52.294;13.626;2022-11-15T05:08:45;30.83;;;9.80;;
18433;SDS011;9344;52.294;13.626;2022-11-15T05:11:11;34.97;;;10.77;;
18433;SDS011;9344;52.294;13.626;2022-11-15T05:13:39;32.17;;;10.18;;
18433;SDS011;9344;52.294;13.626;2022-11-15T05:16:06;28.88;;;9.68;;
18433;SDS011;9344;52.294;13.626;2022-11-15T05:18:32;40.40;;;13.73;;
18433;SDS011;9344;52.294;13.626;2022-11-15T05:21:02;43.28;;;14.25;;
18433;SDS011;9344;52.294;13.626;2022-11-15T05:23:29;96.75;;;23.90;;
18433;SDS011;9344;52.294;13.626;2022-11-15T05:25:58;38.60;;;12.57;;
18433;SDS011;9344;52.294;13.626;2022-11-15T05:28:25;30.40;;;10.20;;
18433;SDS011;9344;52.294;13.626;2022-11-15T05:30:53;35.65;;;11.57;;
18433;SDS011;9344;52.294;13.626;2022-11-15T05:33:25;27.98;;;10.23;;
18433;SDS011;9344;52.294;13.626;2022-11-15T05:35:54;26.55;;;10.30;;
18433;SDS011;9344;52.294;13.626;2022-11-15T05:38:26;30.50;;;9.60;;
18433;SDS011;9344;52.294;13.626;2022-11-15T05:40:52;32.60;;;9.68;;
18433;SDS011;9344;52.294;13.626;2022-11-15T05:43:20;30.17;;;11.30;;
18433;SDS011;9344;52.294;13.626;2022-11-15T05:45:46;28.00;;;9.73;;
18433;SDS011;9344;52.294;13.626;2022-11-15T05:48:15;30.10;;;10.55;;
18433;SDS011;9344;52.294;13.626;2022-11-15T05:50:43;30.20;;;9.23;;
18433;SDS011;9344;52.294;13.626;2022-11-15T05:53:12;33.92;;;10.70;;
18433;SDS011;9344;52.294;13.626;2022-11-15T05:55:41;31.75;;;10.20;;
18433;SDS011;9344;52.294;13.626;2022-11-15T05:58:07;29.57;;;9.50;;
18433;SDS011;9344;52.294;13.626;2022-11-15T06:00:34;32.67;;;10.10;;
18433;SDS011;9344;52.294;13.626;2022-11-15T06:03:01;26.48;;;9.55;;
18433;SDS011;9344;52.294;13.626;2022-11-15T06:05:28;32.07;;;10.40;;
18433;SDS011;9344;52.294;13.626;2022-11-15T06:07:56;31.98;;;10.23;;
18433;SDS011;9344;52.294;13.626;2022-11-15T06:10:23;26.50;;;9.37;;
18433;SDS011;9344;52.294;13.626;2022-11-15T06:12:55;30.67;;;10.30;;
18433;SDS011;9344;52.294;13.626;2022-11-15T06:15:22;28.00;;;9.33;;
18433;SDS011;9344;52.294;13.626;2022-11-15T06:17:49;32.53;;;11.03;;
18433;SDS011;9344;52.294;13.626;2022-11-15T06:20:15;31.23;;;9.90;;
18433;SDS011;9344;52.294;13.626;2022-11-15T06:22:43;32.70;;;10.50;;
18433;SDS011;9344;52.294;13.626;2022-11-15T06:25:10;30.60;;;10.17;;
18433;SDS011;9344;52.294;13.626;2022-11-15T06:27:36;29.45;;;9.63;;
18433;SDS011;9344;52.294;13.626;2022-11-15T06:30:03;31.80;;;10.77;;
18433;SDS011;9344;52.294;13.626;2022-11-15T06:32:30;29.33;;;9.68;;
18433;SDS011;9344;52.294;13.626;2022-11-15T06:34:57;29.88;;;10.77;;
18433;SDS011;9344;52.294;13.626;2022-11-15T06:37:23;30.33;;;10.20;;
18433;SDS011;9344;52.294;13.626;2022-11-15T06:39:51;31.58;;;10.68;;
18433;SDS011;9344;52.294;13.626;2022-11-15T06:42:18;29.67;;;10.27;;
18433;SDS011;9344;52.294;13.626;2022-11-15T06:44:44;25.20;;;9.43;;
18433;SDS011;9344;52.294;13.626;2022-11-15T06:47:11;27.15;;;9.40;;
18433;SDS011;9344;52.294;13.626;2022-11-15T06:49:37;27.73;;;9.77;;
18433;SDS011;9344;52.294;13.626;2022-11-15T06:52:04;30.15;;;9.20;;
18433;SDS011;9344;52.294;13.626;2022-11-15T06:54:30;32.67;;;10.48;;
18433;SDS011;9344;52.294;13.626;2022-11-15T06:56:58;31.40;;;10.43;;
18433;SDS011;9344;52.294;13.626;2022-11-15T06:59:25;35.00;;;10.48;;
18433;SDS011;9344;52.294;13.626;2022-11-15T07:01:51;34.17;;;10.85;;
18433;SDS011;9344;52.294;13.626;2022-11-15T07:04:18;30.20;;;10.88;;
18433;SDS011;9344;52.294;13.626;2022-11-15T07:06:45;33.92;;;10.20;;
18433;SDS011;9344;52.294;13.626;2022-11-15T07:09:12;33.05;;;10.98;;
18433;SDS011;9344;52.294;13.626;2022-11-15T07:11:39;36.38;;;11.20;;
18433;SDS011;9344;52.294;13.626;2022-11-15T07:14:07;37.67;;;10.73;;
18433;SDS011;9344;52.294;13.626;2022-11-15T07:16:33;35.33;;;11.45;;
18433;SDS011;9344;52.294;13.626;2022-11-15T07:19:00;35.50;;;10.68;;
18433;SDS011;9344;52.294;13.626;2022-11-15T07:21:26;32.07;;;10.17;;
18433;SDS011;9344;52.294;13.626;2022-11-15T07:23:53;31.90;;;11.10;;
18433;SDS011;9344;52.294;13.626;2022-11-15T07:26:19;32.25;;;11.05;;
18433;SDS011;9344;52.294;13.626;2022-11-15T07:28:46;30.07;;;9.10;;
18433;SDS011;9344;52.294;13.626;2022-11-15T07:31:14;32.97;;;11.20;;
18433;SDS011;9344;52.294;13.626;2022-11-15T07:33:40;34.05;;;10.75;;
18433;SDS011;9344;52.294;13.626;2022-11-15T07:36:07;36.78;;;10.15;;
18433;SDS011;9344;52.294;13.626;2022-11-15T07:38:35;37.17;;;10.88;;
18433;SDS011;9344;52.294;13.626;2022-11-15T07:41:03;34.80;;;10.50;;
18433;SDS011;9344;52.294;13.626;2022-11-15T07:43:30;29.75;;;10.65;;
18433;SDS011;9344;52.294;13.626;2022-11-15T07:45:58;33.42;;;11.48;;
18433;SDS011;9344;52.294;13.626;2022-11-15T07:48:31;30.73;;;10.00;;
18433;SDS011;9344;52.294;13.626;2022-11-15T07:50:57;34.28;;;11.45;;
18433;SDS011;9344;52.294;13.626;2022-11-15T07:53:24;29.15;;;10.15;;
18433;SDS011;9344;52.294;13.626;2022-11-15T07:55:50;35.17;;;10.68;;
18433;SDS011;9344;52.294;13.626;2022-11-15T07:58:18;35.33;;;10.48;;
18433;SDS011;9344;52.294;13.626;2022-11-15T08:00:45;38.22;;;12.43;;
18433;SDS011;9344;52.294;13.626;2022-11-15T08:03:12;33.33;;;10.65;;
18433;SDS011;9344;52.294;13.626;2022-11-15T08:05:42;31.90;;;10.40;;
18433;SDS011;9344;52.294;13.626;2022-11-15T08:08:10;32.63;;;11.40;;
18433;SDS011;9344;52.294;13.626;2022-11-15T08:10:37;32.30;;;10.43;;
18433;SDS011;9344;52.294;13.626;2022-11-15T08:13:04;39.67;;;11.55;;
18433;SDS011;9344;52.294;13.626;2022-11-15T08:15:32;31.85;;;9.82;;
18433;SDS011;9344;52.294;13.626;2022-11-15T08:18:00;34.13;;;11.20;;
18433;SDS011;9344;52.294;13.626;2022-11-15T08:20:28;34.95;;;11.50;;
18433;SDS011;9344;52.294;13.626;2022-11-15T08:22:57;34.90;;;11.48;;
18433;SDS011;9344;52.294;13.626;2022-11-15T08:25:24;32.65;;;10.60;;
18433;SDS011;9344;52.294;13.626;2022-11-15T08:27:51;32.20;;;10.98;;
18433;SDS011;9344;52.294;13.626;2022-11-15T08:30:19;31.52;;;10.23;;
18433;SDS011;9344;52.294;13.626;2022-11-15T08:32:45;29.23;;;10.13;;
18433;SDS011;9344;52.294;13.626;2022-11-15T08:35:12;31.13;;;10.32;;
18433;SDS011;9344;52.294;13.626;2022-11-15T08:37:39;32.30;;;10.98;;
18433;SDS011;9344;52.294;13.626;2022-11-15T08:40:07;64.25;;;20.20;;
18433;SDS011;9344;52.294;13.626;2022-11-15T08:42:34;36.95;;;12.48;;
18433;SDS011;9344;52.294;13.626;2022-11-15T08:45:01;36.75;;;12.13;;
18433;SDS011;9344;52.294;13.626;2022-11-15T08:47:28;33.10;;;11.60;;
18433;SDS011;9344;52.294;13.626;2022-11-15T08:49:56;33.42;;;10.68;;
18433;SDS011;9344;52.294;13.626;2022-11-15T08:52:22;35.28;;;10.85;;
18433;SDS011;9344;52.294;13.626;2022-11-15T08:54:49;34.35;;;10.63;;
18433;SDS011;9344;52.294;13.626;2022-11-15T08:57:17;34.22;;;10.23;;
18433;SDS011;9344;52.294;13.626;2022-11-15T08:59:44;31.52;;;9.90;;
18433;SDS011;9344;52.294;13.626;2022-11-15T09:02:11;33.22;;;11.43;;
18433;SDS011;9344;52.294;13.626;2022-11-15T09:04:39;37.53;;;11.50;;
18433;SDS011;9344;52.294;13.626;2022-11-15T09:07:06;36.22;;;10.90;;
18433;SDS011;9344;52.294;13.626;2022-11-15T09:09:33;29.85;;;9.95;;
18433;SDS011;9344;52.294;13.626;2022-11-15T09:12:00;33.28;;;10.52;;
18433;SDS011;9344;52.294;13.626;2022-11-15T09:14:27;41.25;;;13.85;;
18433;SDS011;9344;52.294;13.626;2022-11-15T09:16:54;40.03;;;13.85;;
18433;SDS011;9344;52.294;13.626;2022-11-15T09:19:21;31.83;;;10.80;;
18433;SDS011;9344;52.294;13.626;2022-11-15T09:21:47;32.35;;;10.85;;
18433;SDS011;9344;52.294;13.626;2022-11-15T09:24:14;32.42;;;10.93;;
18433;SDS011;9344;52.294;13.626;2022-11-15T09:26:40;32.67;;;10.68;;
18433;SDS011;9344;52.294;13.626;2022-11-15T09:29:07;34.13;;;10.63;;
18433;SDS011;9344;52.294;13.626;2022-11-15T09:31:35;35.92;;;10.18;;
18433;SDS011;9344;52.294;13.626;2022-11-15T09:34:01;38.80;;;10.20;;
18433;SDS011;9344;52.294;13.626;2022-11-15T09:36:28;33.00;;;9.95;;
18433;SDS011;9344;52.294;13.626;2022-11-15T09:38:54;30.83;;;11.00;;
18433;SDS011;9344;52.294;13.626;2022-11-15T09:41:25;32.47;;;10.60;;
18433;SDS011;9344;52.294;13.626;2022-11-15T09:44:07;32.50;;;10.60;;
18433;SDS011;9344;52.294;13.626;2022-11-15T09:46:47;31.67;;;9.98;;
18433;SDS011;9344;52.294;13.626;2022-11-15T09:49:27;40.65;;;10.27;;
18433;SDS011;9344;52.294;13.626;2022-11-15T09:51:55;27.85;;;9.25;;
18433;SDS011;9344;52.294;13.626;2022-11-15T09:54:25;25.52;;;9.35;;
18433;SDS011;9344;52.294;13.626;2022-11-15T09:56:55;29.60;;;9.80;;
18433;SDS011;9344;52.294;13.626;2022-11-15T09:59:35;29.05;;;9.45;;
18433;SDS011;9344;52.294;13.626;2022-11-15T10:02:13;29.90;;;9.45;;
18433;SDS011;9344;52.294;13.626;2022-11-15T10:04:52;29.05;;;9.35;;
18433;SDS011;9344;52.294;13.626;2022-11-15T10:07:21;29.30;;;9.77;;
18433;SDS011;9344;52.294;13.626;2022-11-15T10:09:54;24.92;;;8.50;;
18433;SDS011;9344;52.294;13.626;2022-11-15T10:12:26;25.10;;;8.50;;
18433;SDS011;9344;52.294;13.626;2022-11-15T10:14:56;25.35;;;9.02;;
18433;SDS011;9344;52.294;13.626;2022-11-15T10:17:31;24.90;;;8.95;;
18433;SDS011;9344;52.294;13.626;2022-11-15T10:20:16;24.65;;;8.43;;
18433;SDS011;9344;52.294;13.626;2022-11-15T10:22:46;28.60;;;8.52;;
18433;SDS011;9344;52.294;13.626;2022-11-15T10:25:17;28.65;;;8.68;;
18433;SDS011;9344;52.294;13.626;2022-11-15T10:27:48;25.63;;;8.93;;
18433;SDS011;9344;52.294;13.626;2022-11-15T10:30:18;31.92;;;10.57;;
18433;SDS011;9344;52.294;13.626;2022-11-15T10:32:51;29.33;;;9.35;;
18433;SDS011;9344;52.294;13.626;2022-11-15T10:35:21;23.50;;;8.68;;
18433;SDS011;9344;52.294;13.626;2022-11-15T10:37:51;32.28;;;8.90;;
18433;SDS011;9344;52.294;13.626;2022-11-15T10:40:18;23.85;;;8.45;;
18433;SDS011;9344;52.294;13.626;2022-11-15T10:42:46;23.98;;;8.18;;
18433;SDS011;9344;52.294;13.626;2022-11-15T10:45:24;22.70;;;7.15;;
18433;SDS011;9344;52.294;13.626;2022-11-15T10:47:54;24.70;;;8.48;;
18433;SDS011;9344;52.294;13.626;2022-11-15T10:50:45;24.88;;;8.27;;
18433;SDS011;9344;52.294;13.626;2022-11-15T10:53:15;19.27;;;7.13;;
18433;SDS011;9344;52.294;13.626;2022-11-15T10:55:47;24.10;;;7.55;;
18433;SDS011;9344;52.294;13.626;2022-11-15T10:58:20;25.20;;;7.97;;
18433;SDS011;9344;52.294;13.626;2022-11-15T11:00:52;23.90;;;7.65;;
18433;SDS011;9344;52.294;13.626;2022-11-15T11:03:29;22.35;;;7.97;;
18433;SDS011;9344;52.294;13.626;2022-11-15T11:06:03;22.08;;;7.60;;
18433;SDS011;9344;52.294;13.626;2022-11-15T11:08:32;18.85;;;7.28;;
18433;SDS011;9344;52.294;13.626;2022-11-15T11:10:59;18.92;;;7.47;;
18433;SDS011;9344;52.294;13.626;2022-11-15T11:13:27;22.90;;;7.90;;
18433;SDS011;9344;52.294;13.626;2022-11-15T11:16:05;26.52;;;7.55;;
18433;SDS011;9344;52.294;13.626;2022-11-15T11:18:46;22.85;;;7.45;;
18433;SDS011;9344;52.294;13.626;2022-11-15T11:21:22;21.58;;;7.80;;
18433;SDS011;9344;52.294;13.626;2022-11-15T11:23:53;19.10;;;7.38;;
18433;SDS011;9344;52.294;13.626;2022-11-15T11:26:30;18.00;;;7.05;;
18433;SDS011;9344;52.294;13.626;2022-11-15T11:29:06;21.85;;;7.88;;
18433;SDS011;9344;52.294;13.626;2022-11-15T11:31:47;19.77;;;7.65;;
18433;SDS011;9344;52.294;13.626;2022-11-15T11:34:27;20.50;;;7.47;;
18433;SDS011;9344;52.294;13.626;2022-11-15T11:37:03;19.80;;;7.32;;
18433;SDS011;9344;52.294;13.626;2022-11-15T11:39:40;20.50;;;7.28;;
18433;SDS011;9344;52.294;13.626;2022-11-15T11:42:23;19.92;;;7.47;;
18433;SDS011;9344;52.294;13.626;2022-11-15T11:44:59;20.42;;;7.30;;
18433;SDS011;9344;52.294;13.626;2022-11-15T11:47:31;18.42;;;6.88;;
18433;SDS011;9344;52.294;13.626;2022-11-15T11:50:04;24.13;;;6.90;;
18433;SDS011;9344;52.294;13.626;2022-11-15T11:52:40;18.75;;;6.70;;
18433;SDS011;9344;52.294;13.626;2022-11-15T11:55:12;21.27;;;6.70;;
18433;SDS011;9344;52.294;13.626;2022-11-15T11:57:41;17.05;;;6.40;;
18433;SDS011;9344;52.294;13.626;2022-11-15T12:00:14;16.92;;;6.53;;
18433;SDS011;9344;52.294;13.626;2022-11-15T12:02:45;14.60;;;6.43;;
18433;SDS011;9344;52.294;13.626;2022-11-15T12:05:18;13.85;;;5.85;;
18433;SDS011;9344;52.294;13.626;2022-11-15T12:07:48;15.27;;;5.63;;
18433;SDS011;9344;52.294;13.626;2022-11-15T12:10:20;14.85;;;5.80;;
18433;SDS011;9344;52.294;13.626;2022-11-15T12:12:53;11.30;;;4.82;;
18433;SDS011;9344;52.294;13.626;2022-11-15T12:15:25;18.77;;;6.05;;
18433;SDS011;9344;52.294;13.626;2022-11-15T12:17:56;15.57;;;6.05;;
18433;SDS011;9344;52.294;13.626;2022-11-15T12:20:27;15.55;;;5.57;;
18433;SDS011;9344;52.294;13.626;2022-11-15T12:22:56;16.13;;;5.97;;
18433;SDS011;9344;52.294;13.626;2022-11-15T12:25:27;12.02;;;5.20;;
18433;SDS011;9344;52.294;13.626;2022-11-15T12:27:57;14.32;;;5.15;;
18433;SDS011;9344;52.294;13.626;2022-11-15T12:30:31;12.25;;;4.82;;
18433;SDS011;9344;52.294;13.626;2022-11-15T12:33:15;13.30;;;4.45;;
18433;SDS011;9344;52.294;13.626;2022-11-15T12:36:02;12.93;;;5.20;;
18433;SDS011;9344;52.294;13.626;2022-11-15T12:41:18;11.95;;;4.72;;
18433;SDS011;9344;52.294;13.626;2022-11-15T12:43:46;13.65;;;4.70;;
18433;SDS011;9344;52.294;13.626;2022-11-15T12:46:19;12.00;;;5.53;;
18433;SDS011;9344;52.294;13.626;2022-11-15T12:48:49;11.50;;;4.72;;
18433;SDS011;9344;52.294;13.626;2022-11-15T12:51:21;10.77;;;4.85;;
18433;SDS011;9344;52.294;13.626;2022-11-15T12:59:56;13.13;;;5.43;;
18433;SDS011;9344;52.294;13.626;2022-11-15T13:02:27;13.85;;;4.95;;
18433;SDS011;9344;52.294;13.626;2022-11-15T13:08:02;11.00;;;4.70;;
18433;SDS011;9344;52.294;13.626;2022-11-15T13:10:30;10.55;;;4.47;;
18433;SDS011;9344;52.294;13.626;2022-11-15T13:12:58;11.65;;;5.03;;
18433;SDS011;9344;52.294;13.626;2022-11-15T13:15:35;10.05;;;4.82;;
18433;SDS011;9344;52.294;13.626;2022-11-15T13:18:34;12.32;;;4.85;;
18433;SDS011;9344;52.294;13.626;2022-11-15T13:21:03;11.73;;;4.70;;
18433;SDS011;9344;52.294;13.626;2022-11-15T13:23:58;10.35;;;4.78;;
18433;SDS011;9344;52.294;13.626;2022-11-15T13:26:24;10.93;;;4.72;;
18433;SDS011;9344;52.294;13.626;2022-11-15T13:28:52;10.50;;;4.50;;
18433;SDS011;9344;52.294;13.626;2022-11-15T13:31:24;9.13;;;4.70;;
18433;SDS011;9344;52.294;13.626;2022-11-15T13:34:02;10.90;;;4.18;;
18433;SDS011;9344;52.294;13.626;2022-11-15T13:36:41;12.80;;;4.65;;
18433;SDS011;9344;52.294;13.626;2022-11-15T13:39:14;15.20;;;5.07;;
18433;SDS011;9344;52.294;13.626;2022-11-15T13:41:52;16.55;;;6.75;;
18433;SDS011;9344;52.294;13.626;2022-11-15T13:44:20;12.27;;;5.28;;
18433;SDS011;9344;52.294;13.626;2022-11-15T13:46:47;12.02;;;5.30;;
18433;SDS011;9344;52.294;13.626;2022-11-15T13:49:14;12.38;;;4.43;;
18433;SDS011;9344;52.294;13.626;2022-11-15T13:51:42;11.13;;;4.78;;
18433;SDS011;9344;52.294;13.626;2022-11-15T13:54:17;12.48;;;4.80;;
18433;SDS011;9344;52.294;13.626;2022-11-15T13:56:47;9.75;;;4.78;;
18433;SDS011;9344;52.294;13.626;2022-11-15T13:59:23;12.73;;;4.57;;
18433;SDS011;9344;52.294;13.626;2022-11-15T14:01:52;10.25;;;4.60;;
18433;SDS011;9344;52.294;13.626;2022-11-15T14:04:20;10.63;;;4.82;;
18433;SDS011;9344;52.294;13.626;2022-11-15T14:06:50;10.45;;;4.85;;
18433;SDS011;9344;52.294;13.626;2022-11-15T14:09:30;11.75;;;5.20;;
18433;SDS011;9344;52.294;13.626;2022-11-15T14:11:59;11.70;;;5.10;;
18433;SDS011;9344;52.294;13.626;2022-11-15T14:14:28;11.32;;;3.92;;
18433;SDS011;9344;52.294;13.626;2022-11-15T14:16:56;11.93;;;4.90;;
18433;SDS011;9344;52.294;13.626;2022-11-15T14:19:34;15.35;;;5.63;;
18433;SDS011;9344;52.294;13.626;2022-11-15T14:22:10;11.38;;;4.60;;
18433;SDS011;9344;52.294;13.626;2022-11-15T14:24:40;10.38;;;4.82;;
18433;SDS011;9344;52.294;13.626;2022-11-15T14:27:18;12.85;;;4.75;;
18433;SDS011;9344;52.294;13.626;2022-11-15T14:29:46;14.10;;;5.40;;
18433;SDS011;9344;52.294;13.626;2022-11-15T14:32:14;11.30;;;4.60;;
18433;SDS011;9344;52.294;13.626;2022-11-15T14:34:43;12.30;;;5.22;;
18433;SDS011;9344;52.294;13.626;2022-11-15T14:37:15;14.70;;;4.78;;
18433;SDS011;9344;52.294;13.626;2022-11-15T14:39:49;9.77;;;4.63;;
18433;SDS011;9344;52.294;13.626;2022-11-15T14:42:16;12.93;;;4.95;;
18433;SDS011;9344;52.294;13.626;2022-11-15T14:44:44;14.27;;;6.45;;
18433;SDS011;9344;52.294;13.626;2022-11-15T14:47:10;12.05;;;6.15;;
18433;SDS011;9344;52.294;13.626;2022-11-15T14:49:37;12.93;;;5.88;;
18433;SDS011;9344;52.294;13.626;2022-11-15T14:52:07;13.93;;;6.32;;
18433;SDS011;9344;52.294;13.626;2022-11-15T14:54:43;15.43;;;6.28;;
18433;SDS011;9344;52.294;13.626;2022-11-15T14:57:10;13.50;;;5.70;;
18433;SDS011;9344;52.294;13.626;2022-11-15T14:59:37;12.93;;;5.70;;
18433;SDS011;9344;52.294;13.626;2022-11-15T15:02:08;10.35;;;5.28;;
18433;SDS011;9344;52.294;13.626;2022-11-15T15:04:41;15.32;;;5.10;;
18433;SDS011;9344;52.294;13.626;2022-11-15T15:07:07;14.52;;;5.65;;